Terminal Aerodrome Forecast
Issued by NWS

Home | Current Version | Previous Version | Text Only | Print | Product List | Glossary On
Versions: 1 2 3 4 5 6 7 8 9 10 11 12 13 14 15 16 17
000
FTUS42 TJSJ 302339
TAFJBQ
TAF
TJBQ 302339Z 3100/3124 10020KT P6SM VCSH BKN030
     FM311300 09017G25KT P6SM VCTS BKN030CB BKN040
     FM311630 09025G30KT P6SM -TSRA BKN025CB BKN040
     FM312200 10017G24KT 4SM -RA BKN025
      AMD NOT SKED 3102/3111=

USA.gov is the U.S. government's official web portal to all federal, state and local government web resources and services.